Terminal Aerodrome Forecast
Issued by NWS Melbourne, FL

Home | Current Version | Previous Version | Text Only | Print | Product List | Glossary On
Versions: 1 2 3 4 5 6 7 8 9 10 11 12 13 14
060
FTUS42 KMLB 230542
TAFMLB
TAF
KMLB 230542Z 2306/2406 23012G19KT P6SM VCSH BKN035
     FM231500 27022G32KT P6SM BKN040
     FM232300 28014G20KT P6SM FEW040=

USA.gov is the U.S. government's official web portal to all federal, state and local government web resources and services.